Time;durP1;ratioP1;P1;durP2;ratioP2;P2;SDS_P1;SDS_P2;PMS_P1;PMS_P2;Temp;Humidity;BMP_temperature;BMP_pressure;BME280_temperature;BME280_humidity;BME280_pressure;Samples;Min_cycle;Max_cycle;Signal;HPM_P1;HPM_P2
2021/12/30 00:01:10;;;;;;;31.63;7.60;;;9.00;99.90;;;;;;5077146;28;20043;-87
2021/12/30 00:03:36;;;;;;;34.40;6.65;;;9.00;99.90;;;;;;5081147;28;20056;-86
2021/12/30 00:06:03;;;;;;;30.80;7.07;;;9.00;99.90;;;;;;5091089;28;20044;-86
2021/12/30 00:08:29;;;;;;;31.03;6.63;;;9.00;99.90;;;;;;5088721;28;20046;-85
2021/12/30 00:10:55;;;;;;;42.83;8.33;;;8.90;99.90;;;;;;5064932;28;20044;-86
2021/12/30 00:13:21;;;;;;;43.27;8.40;;;8.90;99.90;;;;;;5074539;28;20086;-87
2021/12/30 00:15:48;;;;;;;35.00;7.67;;;8.80;99.90;;;;;;5090303;28;20040;-86
2021/12/30 00:18:15;;;;;;;42.73;7.90;;;8.90;99.90;;;;;;5094337;27;20067;-86
2021/12/30 00:20:41;;;;;;;38.47;8.37;;;8.80;99.90;;;;;;5092890;27;20035;-86
2021/12/30 00:23:08;;;;;;;39.27;8.50;;;8.80;99.90;;;;;;5068380;27;20039;-86
2021/12/30 00:25:40;;;;;;;44.10;8.00;;;8.80;99.90;;;;;;5090523;27;20043;-86
2021/12/30 00:28:12;;;;;;;44.63;8.40;;;8.80;99.90;;;;;;5100371;27;20599;-86
2021/12/30 00:30:38;;;;;;;45.47;8.83;;;8.80;99.90;;;;;;5085884;27;20049;-83
2021/12/30 00:33:04;;;;;;;36.87;8.23;;;8.70;99.90;;;;;;5109443;28;20078;-85
2021/12/30 00:35:32;;;;;;;39.07;8.63;;;8.70;99.90;;;;;;5059470;27;20485;-84
2021/12/30 00:37:57;;;;;;;56.23;9.53;;;8.70;99.90;;;;;;5099703;27;20056;-86
2021/12/30 00:40:23;;;;;;;52.57;9.13;;;8.70;99.90;;;;;;5075442;28;20058;-86
2021/12/30 00:42:49;;;;;;;47.30;8.83;;;8.70;99.90;;;;;;5076369;28;20043;-86
2021/12/30 00:45:15;;;;;;;37.70;8.77;;;8.60;99.90;;;;;;5075507;28;20047;-85
2021/12/30 00:47:41;;;;;;;49.27;8.50;;;8.60;99.90;;;;;;5076145;27;20532;-87
2021/12/30 00:50:07;;;;;;;37.80;7.93;;;8.60;99.90;;;;;;5084501;28;20074;-86
2021/12/30 00:52:34;;;;;;;46.77;8.40;;;8.60;99.90;;;;;;5087847;27;20428;-87
2021/12/30 00:55:00;;;;;;;54.23;8.80;;;8.60;99.90;;;;;;5069164;28;20058;-86
2021/12/30 00:57:26;;;;;;;42.13;7.93;;;8.60;99.90;;;;;;5063925;28;20040;-86
2021/12/30 00:59:52;;;;;;;47.37;7.93;;;8.60;99.90;;;;;;5069685;28;20047;-85
2021/12/30 01:02:17;;;;;;;45.00;8.40;;;8.50;99.90;;;;;;5063617;28;20051;-86
2021/12/30 01:04:43;;;;;;;33.20;7.47;;;8.50;99.90;;;;;;5079859;28;20053;-85
2021/12/30 01:07:09;;;;;;;44.73;7.73;;;8.50;99.90;;;;;;5067644;28;20035;-87
2021/12/30 01:09:35;;;;;;;46.43;7.67;;;8.50;99.90;;;;;;5099557;28;20732;-85
2021/12/30 01:12:02;;;;;;;42.50;7.13;;;8.50;99.90;;;;;;5092004;28;20069;-87
2021/12/30 01:14:30;;;;;;;47.53;8.00;;;8.40;99.90;;;;;;5077617;28;20039;-85
2021/12/30 01:16:59;;;;;;;42.53;7.70;;;8.40;99.90;;;;;;5083565;28;20045;-86
2021/12/30 01:19:44;;;;;;;37.33;8.17;;;8.40;99.90;;;;;;5094218;28;20044;-87
2021/12/30 01:22:16;;;;;;;42.60;7.70;;;8.40;99.90;;;;;;5085171;28;20031;-88
2021/12/30 01:24:43;;;;;;;37.27;7.43;;;8.30;99.90;;;;;;5096632;28;20047;-85
2021/12/30 01:27:09;;;;;;;40.47;7.57;;;8.30;99.90;;;;;;5068079;28;20040;-86
2021/12/30 01:29:35;;;;;;;36.37;7.53;;;8.30;99.90;;;;;;5060955;28;20046;-87
2021/12/30 01:32:01;;;;;;;42.93;7.87;;;8.30;99.90;;;;;;5099403;28;20047;-87
2021/12/30 01:34:27;;;;;;;40.80;7.50;;;8.30;99.90;;;;;;5092610;28;20044;-87
2021/12/30 01:36:54;;;;;;;32.73;7.60;;;8.30;99.90;;;;;;5114791;28;20058;-86
2021/12/30 01:39:22;;;;;;;44.50;7.87;;;8.30;99.90;;;;;;5100930;28;20047;-87
2021/12/30 01:41:49;;;;;;;43.37;7.50;;;8.30;99.90;;;;;;5096740;28;20115;-85
2021/12/30 01:44:15;;;;;;;43.17;7.50;;;8.30;99.90;;;;;;5080885;28;20040;-87
2021/12/30 01:46:43;;;;;;;37.80;7.13;;;8.30;99.90;;;;;;5083709;27;20043;-87
2021/12/30 01:49:11;;;;;;;41.17;7.27;;;8.30;99.90;;;;;;5102968;27;20067;-87
2021/12/30 01:51:38;;;;;;;39.17;7.03;;;8.30;99.90;;;;;;5103772;27;20047;-86
2021/12/30 01:54:06;;;;;;;32.63;7.17;;;8.20;99.90;;;;;;5091576;27;20039;-86
2021/12/30 01:56:32;;;;;;;38.53;7.80;;;8.20;99.90;;;;;;5093658;28;20044;-86
2021/12/30 01:58:58;;;;;;;39.60;7.20;;;8.20;99.90;;;;;;5071581;27;20056;-87
2021/12/30 02:01:25;;;;;;;37.47;7.00;;;8.20;99.90;;;;;;5094257;28;20105;-86
2021/12/30 02:03:51;;;;;;;38.00;7.17;;;8.20;99.90;;;;;;5083092;27;20500;-86
2021/12/30 02:06:17;;;;;;;39.50;7.20;;;8.20;99.90;;;;;;5106677;27;20056;-87
2021/12/30 02:08:43;;;;;;;28.03;6.00;;;8.20;99.90;;;;;;5092199;28;20077;-85
2021/12/30 02:11:09;;;;;;;33.57;7.43;;;8.20;99.90;;;;;;5099203;27;20043;-87
2021/12/30 02:13:34;;;;;;;40.50;7.87;;;8.20;99.90;;;;;;5083134;27;20099;-87
2021/12/30 02:16:02;;;;;;;37.93;7.30;;;8.20;99.90;;;;;;5077565;28;20107;-87
2021/12/30 02:18:29;;;;;;;39.43;6.37;;;8.20;99.90;;;;;;5077495;28;20107;-88
2021/12/30 02:21:02;;;;;;;36.93;7.07;;;8.20;99.90;;;;;;5099762;27;20046;-88
2021/12/30 02:23:30;;;;;;;39.93;6.80;;;8.20;99.90;;;;;;5093158;27;20046;-87
2021/12/30 02:26:02;;;;;;;32.83;7.03;;;8.20;99.90;;;;;;5087495;28;20035;-87
2021/12/30 02:28:32;;;;;;;33.22;7.47;;;8.20;99.90;;;;;;5096696;27;20504;-88
2021/12/30 02:31:00;;;;;;;40.03;7.33;;;8.20;99.90;;;;;;5092672;27;20046;-87
2021/12/30 02:33:27;;;;;;;41.63;7.47;;;8.20;99.90;;;;;;5086380;27;20051;-87
2021/12/30 02:35:54;;;;;;;35.37;9.20;;;8.20;99.90;;;;;;5097509;27;20051;-87
2021/12/30 02:38:22;;;;;;;36.80;8.93;;;8.20;99.90;;;;;;5091450;28;20062;-87
2021/12/30 02:40:50;;;;;;;41.10;8.73;;;8.10;99.90;;;;;;5072407;28;20063;-87
2021/12/30 02:43:19;;;;;;;45.67;10.87;;;8.10;99.90;;;;;;5087294;27;20039;-86
2021/12/30 02:45:45;;;;;;;45.17;9.83;;;8.20;99.90;;;;;;5110246;27;20126;-87
2021/12/30 02:48:17;;;;;;;48.60;10.90;;;8.20;99.90;;;;;;5099656;27;20035;-86
2021/12/30 02:50:45;;;;;;;47.65;11.55;;;8.30;99.90;;;;;;5087304;28;20043;-87
2021/12/30 02:53:12;;;;;;;52.93;12.97;;;8.40;99.90;;;;;;5092907;28;20039;-88
2021/12/30 02:55:38;;;;;;;58.53;15.20;;;8.40;99.90;;;;;;5079330;28;20122;-87
2021/12/30 02:58:04;;;;;;;57.50;14.90;;;8.50;99.90;;;;;;5095296;27;20046;-85
2021/12/30 03:00:30;;;;;;;61.50;16.67;;;8.50;99.90;;;;;;5100111;28;20047;-86
2021/12/30 03:02:56;;;;;;;59.93;16.80;;;8.60;99.90;;;;;;5082941;27;20045;-86
2021/12/30 03:05:24;;;;;;;63.87;16.73;;;8.60;99.90;;;;;;5084198;27;20455;-87
2021/12/30 03:07:52;;;;;;;75.67;19.50;;;8.70;99.90;;;;;;5101629;27;20047;-87
2021/12/30 03:10:22;;;;;;;67.20;17.23;;;8.70;99.90;;;;;;5096853;28;20124;-88
2021/12/30 03:12:56;;;;;;;67.57;18.77;;;8.80;99.90;;;;;;5083202;27;20056;-86
2021/12/30 03:15:23;;;;;;;67.93;19.40;;;8.80;99.90;;;;;;5092820;28;20048;-87
2021/12/30 03:17:49;;;;;;;73.40;21.10;;;8.90;99.90;;;;;;5079602;28;20050;-87
2021/12/30 03:20:16;;;;;;;69.90;18.17;;;8.90;99.90;;;;;;5095095;27;20121;-87
2021/12/30 03:22:43;;;;;;;75.77;21.03;;;8.90;99.90;;;;;;5076789;28;20043;-87
2021/12/30 03:25:11;;;;;;;78.13;20.63;;;9.00;99.90;;;;;;5094658;27;20096;-87
2021/12/30 03:27:38;;;;;;;65.10;19.90;;;9.00;99.90;;;;;;5082754;28;20051;-87
2021/12/30 03:30:11;;;;;;;69.90;20.13;;;9.00;99.90;;;;;;5098528;27;20100;-88
2021/12/30 03:32:36;;;;;;;70.47;18.97;;;9.00;99.90;;;;;;5092640;27;20110;-88
2021/12/30 03:35:04;;;;;;;64.77;18.73;;;9.10;99.90;;;;;;5063414;28;20078;-87
2021/12/30 03:37:29;;;;;;;85.93;20.70;;;9.10;99.90;;;;;;5075298;28;20141;-86
2021/12/30 03:39:55;;;;;;;71.33;20.10;;;9.20;99.90;;;;;;5071300;27;20453;-87
2021/12/30 03:42:21;;;;;;;68.27;20.10;;;9.20;99.90;;;;;;5070187;27;20084;-88
2021/12/30 03:44:48;;;;;;;65.40;19.67;;;9.20;99.90;;;;;;5116015;27;20040;-87
2021/12/30 03:47:17;;;;;;;72.77;20.77;;;9.20;99.90;;;;;;5110397;27;20035;-87
2021/12/30 03:49:45;;;;;;;69.50;19.60;;;9.30;99.90;;;;;;5085973;28;20102;-88
2021/12/30 03:52:15;;;;;;;62.30;19.60;;;9.30;99.90;;;;;;5077367;28;20039;-86
2021/12/30 03:54:42;;;;;;;62.40;19.50;;;9.30;99.90;;;;;;5074318;28;20139;-87
2021/12/30 03:57:08;;;;;;;76.73;18.67;;;9.40;99.90;;;;;;5067285;27;20044;-87
2021/12/30 03:59:34;;;;;;;62.93;18.17;;;9.40;99.90;;;;;;5066850;27;20046;-87
2021/12/30 04:02:00;;;;;;;72.87;19.33;;;9.40;99.90;;;;;;5085286;28;20076;-87
2021/12/30 04:04:26;;;;;;;67.10;18.63;;;9.40;99.90;;;;;;5097204;28;20117;-86
2021/12/30 04:06:52;;;;;;;58.87;19.00;;;9.40;99.90;;;;;;5073698;27;20129;-87
2021/12/30 04:09:18;;;;;;;69.93;19.83;;;9.50;99.90;;;;;;5089961;27;20035;-87
2021/12/30 04:11:44;;;;;;;64.93;19.50;;;9.50;99.90;;;;;;5116917;27;20059;-88
2021/12/30 04:14:09;;;;;;;77.57;19.70;;;9.40;99.90;;;;;;5065744;27;20072;-87
2021/12/30 04:16:35;;;;;;;62.03;18.67;;;9.40;99.90;;;;;;5094564;27;20047;-86
2021/12/30 04:19:03;;;;;;;56.20;17.53;;;9.40;99.90;;;;;;5082189;27;20102;-88
2021/12/30 04:21:30;;;;;;;65.37;18.53;;;9.40;99.90;;;;;;5081414;28;20130;-87
2021/12/30 04:23:56;;;;;;;60.07;18.97;;;9.40;99.90;;;;;;5079680;28;20044;-86
2021/12/30 04:26:22;;;;;;;65.23;19.07;;;9.40;99.90;;;;;;5089817;27;20092;-87
2021/12/30 04:28:48;;;;;;;68.97;18.67;;;9.40;99.90;;;;;;5079452;28;20056;-88
2021/12/30 04:31:14;;;;;;;65.30;18.20;;;9.50;99.90;;;;;;5082575;28;20109;-88
2021/12/30 04:33:40;;;;;;;60.53;17.43;;;9.50;99.90;;;;;;5059954;28;20048;-86
2021/12/30 04:36:06;;;;;;;64.17;18.77;;;9.50;99.90;;;;;;5095343;28;20126;-88
2021/12/30 04:38:33;;;;;;;81.17;19.10;;;9.50;99.90;;;;;;5114128;28;20119;-87
2021/12/30 04:41:00;;;;;;;71.57;19.20;;;9.50;99.90;;;;;;5089505;28;20103;-86
2021/12/30 04:43:26;;;;;;;67.97;21.07;;;9.60;99.90;;;;;;5095312;28;20032;-87
2021/12/30 04:45:53;;;;;;;71.43;19.60;;;9.60;99.90;;;;;;5073298;28;20044;-87
2021/12/30 04:48:21;;;;;;;80.37;21.03;;;9.60;99.90;;;;;;5080944;28;20765;-88
2021/12/30 04:50:47;;;;;;;66.93;18.50;;;9.70;99.90;;;;;;5087719;28;20061;-89
2021/12/30 04:53:15;;;;;;;75.20;21.13;;;9.70;99.90;;;;;;5086364;28;20072;-86
2021/12/30 04:55:41;;;;;;;72.50;20.83;;;9.70;99.90;;;;;;5077589;28;20044;-88
2021/12/30 04:58:07;;;;;;;68.73;19.67;;;9.80;99.90;;;;;;5068824;28;20052;-88
2021/12/30 05:00:34;;;;;;;72.60;20.03;;;9.80;99.90;;;;;;5097885;28;20077;-88
2021/12/30 05:05:31;;;;;;;;;;;9.90;99.90;;;;;;5088630;28;20052;-88
2021/12/30 05:07:57;;;;;;;72.73;19.77;;;9.90;99.90;;;;;;5087981;28;19931;-86
2021/12/30 05:10:23;;;;;;;63.93;19.00;;;9.90;99.90;;;;;;5083496;28;20051;-89
2021/12/30 05:12:49;;;;;;;63.90;19.27;;;9.90;99.90;;;;;;5066132;28;20048;-88
2021/12/30 05:15:15;;;;;;;64.93;19.07;;;10.00;99.90;;;;;;5088497;28;20055;-87
2021/12/30 05:17:41;;;;;;;58.97;18.27;;;10.00;99.90;;;;;;5098167;28;20061;-86
2021/12/30 05:20:08;;;;;;;53.43;17.43;;;10.00;99.90;;;;;;5068541;28;20050;-87
2021/12/30 05:22:34;;;;;;;54.37;18.67;;;10.00;99.90;;;;;;5109277;28;20044;-87
2021/12/30 05:25:00;;;;;;;72.03;20.67;;;10.10;99.90;;;;;;5078018;28;20105;-89
2021/12/30 05:27:26;;;;;;;69.50;19.07;;;10.20;99.90;;;;;;5113779;27;20050;-84
2021/12/30 05:29:52;;;;;;;57.63;19.23;;;10.20;99.90;;;;;;5102288;27;20043;-86
2021/12/30 05:32:18;;;;;;;50.67;17.80;;;10.20;99.90;;;;;;5071047;27;20054;-87
2021/12/30 05:34:43;;;;;;;63.87;19.23;;;10.20;99.90;;;;;;5071572;27;20458;-87
2021/12/30 05:37:09;;;;;;;59.00;18.47;;;10.30;99.90;;;;;;5084651;28;20050;-87
2021/12/30 05:39:40;;;;;;;48.33;17.73;;;10.30;99.90;;;;;;5078380;28;20050;-87
2021/12/30 05:42:06;;;;;;;54.30;19.60;;;10.30;99.90;;;;;;5079913;27;20071;-87
2021/12/30 05:44:31;;;;;;;51.53;17.33;;;10.30;99.90;;;;;;5094653;27;20066;-86
2021/12/30 05:46:57;;;;;;;44.27;16.73;;;10.40;99.90;;;;;;5080775;27;20154;-87
2021/12/30 05:49:23;;;;;;;48.27;17.43;;;10.40;99.90;;;;;;5070586;27;20043;-87
2021/12/30 05:51:49;;;;;;;42.53;18.00;;;10.40;99.90;;;;;;5060061;27;20077;-86
2021/12/30 05:54:15;;;;;;;39.33;15.57;;;10.50;99.90;;;;;;5070512;27;20043;-87
2021/12/30 05:56:40;;;;;;;40.67;16.67;;;10.50;99.90;;;;;;5069942;27;20407;-87
2021/12/30 05:59:06;;;;;;;40.57;16.33;;;10.50;99.90;;;;;;5101183;27;20047;-87
2021/12/30 06:01:32;;;;;;;35.90;16.07;;;10.50;99.90;;;;;;5075219;28;20411;-86
2021/12/30 06:03:58;;;;;;;32.00;13.67;;;10.50;99.90;;;;;;5092758;27;20047;-85
2021/12/30 06:06:24;;;;;;;39.70;15.60;;;10.50;99.90;;;;;;5081970;28;20031;-86
2021/12/30 06:08:51;;;;;;;49.93;17.90;;;10.50;99.90;;;;;;5104579;27;20066;-86
2021/12/30 06:11:17;;;;;;;43.53;17.17;;;10.50;99.90;;;;;;5071754;27;20050;-86
2021/12/30 06:13:43;;;;;;;41.47;16.63;;;10.50;99.90;;;;;;5079599;28;20043;-87
2021/12/30 06:16:09;;;;;;;50.47;17.10;;;10.50;99.90;;;;;;5082028;27;20087;-85
2021/12/30 06:18:34;;;;;;;50.53;18.37;;;10.60;99.90;;;;;;5088764;28;20046;-85
2021/12/30 06:21:00;;;;;;;60.63;19.23;;;10.50;99.90;;;;;;5072902;27;20047;-85
2021/12/30 06:23:26;;;;;;;40.70;16.90;;;10.60;99.90;;;;;;5103523;27;20103;-86
2021/12/30 06:25:52;;;;;;;63.93;22.40;;;10.60;99.90;;;;;;5087332;27;20065;-86
2021/12/30 06:28:18;;;;;;;62.97;21.20;;;10.60;99.90;;;;;;5077106;28;20055;-86
2021/12/30 06:30:44;;;;;;;62.27;23.23;;;10.60;99.90;;;;;;5077625;28;20085;-85
2021/12/30 06:33:10;;;;;;;80.17;24.83;;;10.70;99.90;;;;;;5093022;28;20052;-86
2021/12/30 06:35:35;;;;;;;74.37;23.73;;;10.70;99.90;;;;;;5078861;28;20062;-85
2021/12/30 06:38:02;;;;;;;87.93;27.73;;;10.80;99.90;;;;;;5052546;27;20051;-86
2021/12/30 06:40:28;;;;;;;92.07;27.33;;;10.90;99.90;;;;;;5119902;27;20039;-87
2021/12/30 06:42:54;;;;;;;96.90;28.07;;;10.90;99.90;;;;;;5082700;27;20103;-86
2021/12/30 06:45:20;;;;;;;94.10;27.07;;;10.90;99.90;;;;;;5085566;27;20043;-86
2021/12/30 06:47:46;;;;;;;95.30;26.93;;;10.90;99.90;;;;;;5100110;27;20074;-86
2021/12/30 06:50:14;;;;;;;80.67;25.07;;;11.00;99.90;;;;;;5065254;28;20077;-87
2021/12/30 06:52:42;;;;;;;77.47;24.17;;;11.00;99.90;;;;;;5102753;27;20054;-86
2021/12/30 06:55:09;;;;;;;87.70;24.60;;;11.00;99.90;;;;;;5080038;27;20118;-86
2021/12/30 06:57:35;;;;;;;71.33;21.87;;;11.10;99.90;;;;;;5076551;28;20055;-87
2021/12/30 07:00:03;;;;;;;68.33;20.87;;;11.10;99.90;;;;;;5061242;28;20047;-86
2021/12/30 07:02:29;;;;;;;62.73;19.33;;;11.10;99.90;;;;;;5074373;27;20283;-87
2021/12/30 07:04:55;;;;;;;66.17;20.63;;;11.20;99.90;;;;;;5072996;27;20050;-87
2021/12/30 07:07:21;;;;;;;58.57;19.80;;;11.20;99.90;;;;;;5064930;28;20047;-85
2021/12/30 07:09:47;;;;;;;65.07;19.50;;;11.20;99.90;;;;;;5082269;28;20035;-87
2021/12/30 07:12:13;;;;;;;54.73;17.77;;;11.20;99.90;;;;;;5082934;27;20036;-86
2021/12/30 07:14:39;;;;;;;60.47;18.10;;;11.20;99.90;;;;;;5091738;28;20066;-87
2021/12/30 07:17:05;;;;;;;59.77;17.90;;;11.20;99.90;;;;;;5081007;27;20046;-86
2021/12/30 07:19:31;;;;;;;52.13;17.17;;;11.20;99.90;;;;;;5065447;28;20069;-86
2021/12/30 07:21:56;;;;;;;50.13;16.87;;;11.20;99.90;;;;;;5076935;28;20043;-86
2021/12/30 07:24:22;;;;;;;48.70;15.37;;;11.20;99.90;;;;;;5092773;28;20115;-87
2021/12/30 07:26:49;;;;;;;50.33;15.80;;;11.20;99.90;;;;;;5055234;28;20441;-86
2021/12/30 07:29:15;;;;;;;40.73;14.57;;;11.20;99.90;;;;;;5087314;28;20067;-87
2021/12/30 07:31:41;;;;;;;37.07;13.70;;;11.30;99.90;;;;;;5072074;28;20036;-87
2021/12/30 07:34:06;;;;;;;36.17;13.10;;;11.30;99.90;;;;;;5072639;28;20040;-85
2021/12/30 07:36:32;;;;;;;43.73;14.10;;;11.30;99.90;;;;;;5074247;28;20055;-86
2021/12/30 07:38:58;;;;;;;27.77;11.40;;;11.30;99.90;;;;;;5053458;28;20098;-78
2021/12/30 07:41:24;;;;;;;31.73;11.80;;;11.30;99.90;;;;;;5070493;28;20063;-86
2021/12/30 07:43:50;;;;;;;24.87;10.50;;;11.30;99.90;;;;;;5074614;28;20055;-80
2021/12/30 07:46:15;;;;;;;20.47;9.17;;;11.40;99.90;;;;;;5093911;28;20427;-85
2021/12/30 07:48:41;;;;;;;22.43;9.07;;;11.40;99.90;;;;;;5081799;28;20043;-80
2021/12/30 07:51:07;;;;;;;19.50;7.97;;;11.40;99.90;;;;;;5060194;28;20047;-85
2021/12/30 07:53:33;;;;;;;16.07;7.03;;;11.40;99.90;;;;;;5091940;28;20047;-85
2021/12/30 07:56:01;;;;;;;13.60;6.67;;;11.40;99.90;;;;;;5083176;28;20077;-84
2021/12/30 07:58:27;;;;;;;12.53;5.73;;;11.40;99.90;;;;;;5072951;28;20036;-85
2021/12/30 08:00:53;;;;;;;13.70;5.57;;;11.40;99.90;;;;;;5083434;28;20044;-85
2021/12/30 08:03:19;;;;;;;13.87;6.20;;;11.40;99.90;;;;;;5063156;28;20079;-85
2021/12/30 08:05:45;;;;;;;11.00;5.27;;;11.40;99.90;;;;;;5110767;28;21085;-85
2021/12/30 08:08:11;;;;;;;16.70;6.30;;;11.40;99.90;;;;;;5094635;28;20095;-85
2021/12/30 08:10:37;;;;;;;10.17;5.33;;;11.40;99.90;;;;;;5092899;28;20048;-85
2021/12/30 08:13:03;;;;;;;10.53;5.17;;;11.40;99.90;;;;;;5059068;28;20054;-85
2021/12/30 08:15:29;;;;;;;12.80;5.93;;;11.40;99.90;;;;;;5079399;28;20111;-82
2021/12/30 08:17:55;;;;;;;11.40;5.97;;;11.50;99.90;;;;;;5088934;28;20044;-83
2021/12/30 08:20:24;;;;;;;11.67;6.17;;;11.50;99.90;;;;;;5082731;28;20106;-84
2021/12/30 08:22:51;;;;;;;11.37;6.00;;;11.50;99.90;;;;;;5061015;28;20101;-84
2021/12/30 08:25:18;;;;;;;8.53;5.43;;;11.50;99.90;;;;;;5075861;28;20073;-83
2021/12/30 08:27:44;;;;;;;9.50;5.60;;;11.60;99.90;;;;;;5071979;28;20060;-83
2021/12/30 08:30:13;;;;;;;12.07;6.50;;;11.60;99.90;;;;;;5077029;28;20422;-83
2021/12/30 08:32:39;;;;;;;8.60;5.03;;;11.60;99.90;;;;;;5092547;28;20091;-83
2021/12/30 08:35:07;;;;;;;8.03;4.77;;;11.60;99.90;;;;;;5092169;28;20063;-83
2021/12/30 08:37:34;;;;;;;8.13;5.07;;;11.60;99.90;;;;;;5077308;28;20035;-83
2021/12/30 08:40:02;;;;;;;7.17;4.80;;;11.60;99.90;;;;;;5076061;28;20046;-84
2021/12/30 08:42:29;;;;;;;9.83;4.87;;;11.60;99.90;;;;;;5091591;28;20036;-83
2021/12/30 08:44:57;;;;;;;5.50;4.03;;;11.70;99.90;;;;;;5095519;28;20375;-82
2021/12/30 08:47:25;;;;;;;7.97;4.77;;;11.70;99.90;;;;;;5092072;28;20058;-83
2021/12/30 08:49:51;;;;;;;8.33;4.10;;;11.70;99.90;;;;;;5091629;28;20631;-83
2021/12/30 08:52:22;;;;;;;7.10;4.20;;;11.70;99.90;;;;;;5057477;28;20060;-82
2021/12/30 08:54:49;;;;;;;7.47;4.03;;;11.70;99.90;;;;;;5092060;28;20044;-83
2021/12/30 08:57:16;;;;;;;6.73;3.67;;;11.70;99.90;;;;;;5070743;28;20281;-83
2021/12/30 08:59:42;;;;;;;5.87;4.03;;;11.80;99.90;;;;;;5086922;28;20059;-86
2021/12/30 09:02:08;;;;;;;6.57;3.93;;;11.80;99.90;;;;;;5071754;28;20035;-80
2021/12/30 09:04:35;;;;;;;6.80;4.37;;;11.90;99.90;;;;;;5071141;28;20119;-78
2021/12/30 09:07:02;;;;;;;9.50;5.20;;;11.90;99.90;;;;;;5089741;28;20055;-79
2021/12/30 09:09:28;;;;;;;5.93;4.60;;;11.90;99.90;;;;;;5091377;28;20055;-79
2021/12/30 09:11:55;;;;;;;9.23;5.13;;;11.90;99.90;;;;;;5091133;28;20638;-78
2021/12/30 09:14:21;;;;;;;8.93;5.20;;;11.90;99.90;;;;;;5059525;28;20044;-79
2021/12/30 09:16:48;;;;;;;8.03;4.80;;;12.00;99.90;;;;;;5092660;28;20046;-79
2021/12/30 09:19:16;;;;;;;10.00;5.77;;;12.00;99.90;;;;;;5092632;28;20105;-79
2021/12/30 09:21:42;;;;;;;10.57;6.00;;;12.00;99.90;;;;;;5072462;28;20035;-77
2021/12/30 09:24:09;;;;;;;10.27;5.77;;;12.00;99.90;;;;;;5047725;28;20570;-78
2021/12/30 09:26:36;;;;;;;11.13;5.80;;;12.00;99.90;;;;;;5080504;28;20053;-78
2021/12/30 09:29:10;;;;;;;12.10;5.87;;;12.10;99.90;;;;;;5060887;28;20067;-78
2021/12/30 09:31:43;;;;;;;11.70;5.40;;;12.10;99.90;;;;;;5092592;28;20044;-80
2021/12/30 09:34:10;;;;;;;8.53;4.93;;;12.10;99.90;;;;;;5075791;28;20055;-79
2021/12/30 09:36:36;;;;;;;11.57;5.37;;;12.10;99.90;;;;;;5069077;28;20063;-80
2021/12/30 09:39:05;;;;;;;11.03;4.97;;;12.20;99.90;;;;;;5091627;28;20043;-80
2021/12/30 09:41:31;;;;;;;11.77;5.07;;;12.20;99.90;;;;;;5093854;28;20043;-80
2021/12/30 09:43:57;;;;;;;11.63;4.53;;;12.20;99.90;;;;;;5068433;28;20054;-81
2021/12/30 09:46:23;;;;;;;9.57;5.10;;;12.10;99.90;;;;;;5090233;28;20139;-80
2021/12/30 09:48:49;;;;;;;10.13;4.80;;;12.20;99.90;;;;;;5090198;28;20051;-81
2021/12/30 09:51:15;;;;;;;12.33;5.33;;;12.20;99.90;;;;;;5091866;28;20131;-81
2021/12/30 09:53:41;;;;;;;12.20;5.20;;;12.20;99.90;;;;;;5088621;28;20046;-80
2021/12/30 09:56:06;;;;;;;14.17;5.80;;;12.20;99.90;;;;;;5068801;28;20048;-80
2021/12/30 09:58:32;;;;;;;12.47;5.33;;;12.20;99.90;;;;;;5065262;28;20048;-78
2021/12/30 10:01:00;;;;;;;11.83;5.80;;;12.20;99.90;;;;;;5061865;28;20094;-80
2021/12/30 10:03:27;;;;;;;13.77;6.57;;;12.20;99.90;;;;;;5087778;28;20055;-80
2021/12/30 10:05:53;;;;;;;14.07;5.90;;;12.20;99.90;;;;;;5107967;28;20119;-80
2021/12/30 10:08:25;;;;;;;13.67;5.10;;;12.20;99.90;;;;;;5091104;28;20071;-80
2021/12/30 10:10:55;;;;;;;13.07;5.63;;;12.30;99.90;;;;;;5079132;28;20044;-81
2021/12/30 10:13:23;;;;;;;13.73;5.40;;;12.20;99.90;;;;;;5090057;28;20036;-80
2021/12/30 10:16:16;;;;;;;11.33;5.00;;;12.30;99.90;;;;;;5094324;28;20048;-81
2021/12/30 10:18:47;;;;;;;;;;;12.30;99.90;;;;;;5087839;28;20071;-81
2021/12/30 10:21:23;;;;;;;11.70;4.47;;;12.20;99.90;;;;;;5094098;28;20000;-80
2021/12/30 10:23:52;;;;;;;8.80;4.63;;;12.20;99.90;;;;;;5095593;28;20253;-81
2021/12/30 10:26:18;;;;;;;12.40;4.70;;;12.30;99.90;;;;;;5094765;28;20055;-80
2021/12/30 10:28:44;;;;;;;10.23;4.13;;;12.20;99.90;;;;;;5058855;28;20048;-81
2021/12/30 10:31:13;;;;;;;6.67;3.77;;;12.30;99.90;;;;;;5077012;28;20418;-80
2021/12/30 10:33:56;;;;;;;9.53;4.37;;;12.30;99.90;;;;;;5072478;28;20077;-80
2021/12/30 10:36:25;;;;;;;9.27;3.80;;;12.20;99.90;;;;;;5074455;28;20139;-81
2021/12/30 10:38:52;;;;;;;9.83;3.93;;;12.30;99.90;;;;;;5083786;28;20071;-80
2021/12/30 10:41:23;;;;;;;12.43;4.37;;;12.30;99.90;;;;;;5092819;28;20469;-79
2021/12/30 10:43:53;;;;;;;10.20;4.37;;;12.30;99.90;;;;;;5064938;28;20048;-79
2021/12/30 10:46:22;;;;;;;7.10;3.97;;;12.20;99.90;;;;;;5084252;28;20040;-79
2021/12/30 10:49:05;;;;;;;9.17;4.30;;;12.30;99.90;;;;;;5055420;28;20097;-80
2021/12/30 10:51:43;;;;;;;10.47;4.60;;;12.20;99.90;;;;;;5060219;28;20388;-79
2021/12/30 10:54:17;;;;;;;9.07;4.47;;;12.30;99.90;;;;;;5070432;28;20507;-80
2021/12/30 10:56:50;;;;;;;16.97;4.90;;;12.30;99.90;;;;;;5093686;28;20119;-80
2021/12/30 10:59:19;;;;;;;11.63;5.00;;;12.30;99.90;;;;;;5074276;28;20059;-80
2021/12/30 11:01:48;;;;;;;17.03;5.03;;;12.30;99.90;;;;;;5095724;28;20107;-80
2021/12/30 11:04:15;;;;;;;17.23;5.33;;;12.30;99.90;;;;;;5074599;28;20075;-80
2021/12/30 11:06:41;;;;;;;17.37;5.00;;;12.30;99.90;;;;;;5067115;28;20079;-81
2021/12/30 11:09:19;;;;;;;19.73;5.60;;;12.30;99.90;;;;;;5055760;28;20036;-80
2021/12/30 11:11:54;;;;;;;20.13;5.80;;;12.30;99.90;;;;;;5065165;28;20040;-80
2021/12/30 11:14:32;;;;;;;19.90;5.40;;;12.30;99.90;;;;;;5072782;28;20996;-80
2021/12/30 11:17:12;;;;;;;20.00;5.90;;;12.30;99.90;;;;;;5078595;28;20380;-80
2021/12/30 11:19:43;;;;;;;20.03;6.00;;;12.30;99.90;;;;;;5064524;28;20055;-80
2021/12/30 11:22:12;;;;;;;18.33;5.82;;;12.30;99.90;;;;;;5063146;28;20043;-80
2021/12/30 11:24:40;;;;;;;18.87;5.30;;;12.30;99.90;;;;;;5067551;28;20055;-80
2021/12/30 11:27:10;;;;;;;21.53;6.03;;;12.30;99.90;;;;;;5073835;28;20051;-80
2021/12/30 11:29:38;;;;;;;22.07;5.83;;;12.30;99.90;;;;;;5071282;28;20085;-79
2021/12/30 11:32:06;;;;;;;16.13;5.30;;;12.30;99.90;;;;;;5062448;28;20044;-80
2021/12/30 11:34:33;;;;;;;20.93;6.13;;;12.30;99.90;;;;;;5096448;28;20035;-80
2021/12/30 11:36:59;;;;;;;20.43;5.20;;;12.30;99.90;;;;;;5097817;28;20358;-80
2021/12/30 11:39:25;;;;;;;23.17;6.57;;;12.30;99.90;;;;;;5079341;28;20044;-81
2021/12/30 11:42:07;;;;;;;29.33;6.63;;;12.30;99.90;;;;;;5072038;28;20131;-80
2021/12/30 11:44:36;;;;;;;;;;;12.30;99.90;;;;;;5102250;28;20192;-79
2021/12/30 11:47:04;;;;;;;21.90;5.50;;;12.40;99.90;;;;;;5092727;28;19923;-80
2021/12/30 11:50:04;;;;;;;23.07;5.73;;;12.30;99.90;;;;;;5079132;28;20063;-80
2021/12/30 11:52:51;;;;;;;20.97;6.20;;;12.30;99.90;;;;;;5076964;28;20060;-80
2021/12/30 11:55:41;;;;;;;25.83;6.40;;;12.40;99.90;;;;;;5086247;28;20185;-79
2021/12/30 12:01:13;;;;;;;23.57;6.10;;;12.30;99.90;;;;;;5102055;28;20055;-79
2021/12/30 12:03:43;;;;;;;25.67;5.80;;;12.30;99.90;;;;;;5082265;28;20051;-79
2021/12/30 12:06:24;;;;;;;24.53;5.63;;;12.40;99.90;;;;;;5093613;28;20036;-77
2021/12/30 12:08:52;;;;;;;21.20;5.40;;;12.40;99.90;;;;;;5102073;28;20096;-80
2021/12/30 12:11:40;;;;;;;30.33;6.13;;;12.40;99.90;;;;;;5094234;28;20076;-81
2021/12/30 12:14:23;;;;;;;19.20;5.67;;;12.40;99.90;;;;;;5090537;28;20079;-81
2021/12/30 12:17:08;;;;;;;23.80;6.97;;;12.40;99.90;;;;;;5086604;28;20067;-81
2021/12/30 12:19:41;;;;;;;22.70;6.50;;;12.40;99.90;;;;;;5081579;28;20047;-79
2021/12/30 12:22:25;;;;;;;27.53;6.00;;;12.40;99.90;;;;;;5088491;28;20040;-80
2021/12/30 12:25:10;;;;;;;25.33;6.50;;;12.40;99.90;;;;;;5077973;28;20051;-79
2021/12/30 12:27:45;;;;;;;23.97;6.10;;;12.40;99.90;;;;;;5089192;27;20036;-80
2021/12/30 12:30:33;;;;;;;22.73;5.70;;;12.40;99.90;;;;;;5100517;27;20043;-81
2021/12/30 12:33:20;;;;;;;20.73;4.97;;;12.50;99.90;;;;;;5088071;27;20042;-80
2021/12/30 12:35:45;;;;;;;21.07;5.60;;;12.40;99.90;;;;;;5088559;28;20517;-80
2021/12/30 12:38:11;;;;;;;22.50;6.27;;;12.50;99.90;;;;;;5081344;27;20035;-81
2021/12/30 12:40:43;;;;;;;21.37;5.53;;;12.40;99.90;;;;;;5085391;27;20800;-81
2021/12/30 12:43:25;;;;;;;28.75;5.95;;;12.50;99.90;;;;;;5089484;28;20209;-82
2021/12/30 12:45:54;;;;;;;24.97;5.97;;;12.50;99.90;;;;;;5107096;28;20463;-79
2021/12/30 12:48:29;;;;;;;21.87;5.93;;;12.50;99.90;;;;;;5096198;27;20051;-79